createdAt,value
2022-10-07T00:02:49.200Z,2.13
2022-10-07T00:05:17.490Z,1.80
2022-10-07T00:07:45.299Z,2.00
2022-10-07T00:10:43.379Z,1.90
2022-10-07T00:13:17.116Z,2.00
2022-10-07T00:15:45.007Z,1.90
2022-10-07T00:18:13.092Z,2.38
2022-10-07T00:20:41.259Z,2.60
2022-10-07T00:23:09.409Z,2.03
2022-10-07T00:25:38.066Z,1.95
2022-10-07T00:28:05.491Z,2.03
2022-10-07T00:30:33.291Z,3.15
2022-10-07T00:33:14.651Z,2.03
2022-10-07T00:35:42.951Z,1.63
2022-10-07T00:38:10.933Z,2.00
2022-10-07T00:40:41.509Z,1.92
2022-10-07T00:43:30.101Z,2.15
2022-10-07T00:46:29.505Z,1.60
2022-10-07T00:49:00.897Z,1.52
2022-10-07T00:51:31.241Z,2.15
2022-10-07T00:54:06.398Z,1.90
2022-10-07T00:56:35.027Z,2.10
2022-10-07T00:59:09.109Z,1.75
2022-10-07T01:01:37.222Z,1.88
2022-10-07T01:04:13.305Z,2.05
2022-10-07T01:07:07.154Z,2.55
2022-10-07T01:09:35.319Z,2.25
2022-10-07T01:12:11.421Z,1.90
2022-10-07T01:15:01.886Z,1.90
2022-10-07T01:18:04.212Z,2.03
2022-10-07T01:20:40.958Z,1.85
2022-10-07T01:23:17.900Z,1.90
2022-10-07T01:25:59.300Z,2.50
2022-10-07T01:28:39.015Z,2.20
2022-10-07T01:31:10.443Z,2.53
2022-10-07T01:34:05.103Z,2.22
2022-10-07T01:36:37.080Z,1.90
2022-10-07T01:39:16.325Z,2.08
2022-10-07T01:41:45.124Z,1.95
2022-10-07T01:44:13.953Z,2.47
2022-10-07T01:46:43.614Z,2.13
2022-10-07T01:52:26.312Z,2.83
2022-10-07T01:55:28.408Z,2.30
2022-10-07T01:58:23.210Z,2.72
2022-10-07T02:01:04.090Z,1.90
2022-10-07T02:03:38.935Z,2.20
2022-10-07T02:06:13.591Z,2.42
2022-10-07T02:08:49.008Z,2.65
2022-10-07T02:11:21.726Z,2.58
2022-10-07T02:14:03.430Z,2.67
2022-10-07T02:16:39.958Z,2.70
2022-10-07T02:22:29.392Z,2.42
2022-10-07T02:24:59.280Z,2.63
2022-10-07T02:27:37.756Z,2.38
2022-10-07T02:30:11.935Z,2.60
2022-10-07T02:32:51.911Z,2.60
2022-10-07T02:35:51.159Z,2.75
2022-10-07T02:38:19.387Z,2.45
2022-10-07T02:41:35.395Z,2.50
2022-10-07T02:44:37.778Z,2.38
2022-10-07T02:47:16.311Z,2.70
2022-10-07T02:49:48.672Z,2.22
2022-10-07T02:52:19.679Z,2.70
2022-10-07T02:55:00.223Z,2.67
2022-10-07T02:57:40.894Z,2.50
2022-10-07T03:00:15.773Z,2.50
2022-10-07T03:03:09.207Z,2.60
2022-10-07T03:05:47.085Z,3.22
2022-10-07T03:08:21.811Z,2.03
2022-10-07T03:10:51.100Z,2.40
2022-10-07T03:13:19.649Z,2.75
2022-10-07T03:15:58.072Z,2.50
2022-10-07T03:18:34.924Z,2.50
2022-10-07T03:21:16.360Z,2.35
2022-10-07T03:23:49.901Z,2.50
2022-10-07T03:26:17.549Z,2.72
2022-10-07T03:29:11.230Z,2.70
2022-10-07T03:31:42.382Z,2.38
2022-10-07T03:34:34.948Z,2.30
2022-10-07T03:37:14.593Z,2.80
2022-10-07T03:39:42.961Z,2.60
2022-10-07T03:42:10.868Z,2.63
2022-10-07T03:44:43.988Z,2.38
2022-10-07T03:47:11.136Z,2.55
2022-10-07T03:49:40.187Z,2.60
2022-10-07T03:52:33.128Z,2.80
2022-10-07T03:55:06.017Z,2.20
2022-10-07T03:57:59.906Z,2.28
2022-10-07T04:03:21.004Z,2.38
2022-10-07T04:06:01.499Z,2.30
2022-10-07T04:08:33.570Z,2.40
2022-10-07T04:11:04.122Z,2.50
2022-10-07T04:13:34.134Z,2.67
2022-10-07T04:16:09.958Z,2.20
2022-10-07T04:18:39.989Z,2.50
2022-10-07T04:21:33.485Z,2.15
2022-10-07T04:24:06.082Z,2.30
2022-10-07T04:26:39.958Z,3.15
2022-10-07T04:29:06.973Z,2.78
2022-10-07T04:31:39.058Z,2.25
2022-10-07T04:34:07.666Z,2.55
2022-10-07T04:36:39.121Z,2.40
2022-10-07T04:39:15.044Z,2.35
2022-10-07T04:41:48.992Z,2.45
2022-10-07T04:44:25.080Z,2.50
2022-10-07T04:47:09.594Z,2.20
2022-10-07T04:49:38.957Z,2.38
2022-10-07T04:52:13.861Z,2.35
2022-10-07T04:54:42.914Z,2.30
2022-10-07T04:57:34.907Z,2.22
2022-10-07T05:00:32.022Z,2.08
2022-10-07T05:03:01.185Z,2.45
2022-10-07T05:05:28.976Z,2.15
2022-10-07T05:08:24.473Z,2.47
2022-10-07T05:11:02.484Z,2.38
2022-10-07T05:13:38.411Z,2.50
2022-10-07T05:16:09.723Z,2.20
2022-10-07T05:18:39.558Z,2.20
2022-10-07T05:24:52.675Z,2.03
2022-10-07T05:30:19.977Z,2.08
2022-10-07T05:32:58.637Z,2.55
2022-10-07T05:47:41.062Z,2.58
2022-10-07T05:50:17.141Z,2.10
2022-10-07T06:04:24.877Z,2.30
2022-10-07T06:07:29.280Z,2.38
2022-10-07T06:43:17.055Z,2.00
2022-10-07T06:45:59.568Z,2.42
2022-10-07T06:48:27.542Z,2.78
2022-10-07T06:50:56.372Z,2.28
2022-10-07T06:53:26.086Z,2.20
2022-10-07T06:55:57.815Z,2.22
2022-10-07T06:58:28.113Z,2.80
2022-10-07T07:00:59.595Z,1.98
2022-10-07T07:03:28.326Z,2.25
2022-10-07T07:05:59.481Z,2.17
2022-10-07T07:08:35.517Z,1.90
2022-10-07T07:14:30.525Z,2.22
2022-10-07T07:17:13.923Z,2.17
2022-10-07T07:19:43.114Z,2.20
2022-10-07T07:22:11.530Z,2.70
2022-10-07T07:24:40.928Z,2.22
2022-10-07T07:27:13.874Z,1.90
2022-10-07T07:29:41.574Z,2.00
2022-10-07T07:32:08.908Z,2.08
2022-10-07T07:34:41.292Z,2.08
2022-10-07T07:37:16.012Z,2.33
2022-10-07T07:39:53.088Z,2.38
2022-10-07T07:42:21.856Z,1.90
2022-10-07T07:44:49.406Z,2.05
2022-10-07T07:47:23.345Z,1.90
2022-10-07T07:49:50.983Z,2.25
2022-10-07T07:52:25.595Z,2.50
2022-10-07T07:55:20.964Z,1.95
2022-10-07T07:57:49.368Z,2.38
2022-10-07T08:00:17.339Z,2.13
2022-10-07T08:02:54.999Z,2.45
2022-10-07T08:05:26.869Z,2.33
2022-10-07T08:07:56.837Z,1.75
2022-10-07T08:10:26.879Z,2.05
2022-10-07T08:12:59.856Z,1.95
2022-10-07T08:15:28.915Z,1.92
2022-10-07T08:17:57.241Z,2.17
2022-10-07T08:20:28.999Z,2.05
2022-10-07T08:22:59.011Z,1.90
2022-10-07T08:28:21.289Z,1.88
2022-10-07T08:30:49.468Z,2.08
2022-10-07T08:33:18.289Z,2.10
2022-10-07T08:36:08.592Z,2.10
2022-10-07T08:38:39.124Z,2.25
2022-10-07T08:41:34.387Z,2.50
2022-10-07T08:44:17.997Z,1.88
2022-10-07T08:47:01.175Z,1.55
2022-10-07T08:50:04.298Z,2.40
2022-10-07T08:52:47.240Z,1.55
2022-10-07T08:55:19.610Z,1.70
2022-10-07T08:58:35.584Z,1.70
2022-10-07T09:01:18.780Z,1.48
2022-10-07T09:04:10.543Z,1.65
2022-10-07T09:10:05.964Z,1.63
2022-10-07T09:12:42.014Z,1.65
2022-10-07T09:15:19.147Z,1.80
2022-10-07T09:18:23.820Z,1.50
2022-10-07T09:23:55.590Z,1.70
2022-10-07T09:26:24.994Z,1.58
2022-10-07T09:28:58.101Z,1.40
2022-10-07T09:31:25.155Z,2.10
2022-10-07T09:33:56.889Z,1.67
2022-10-07T09:36:26.815Z,1.60
2022-10-07T09:38:54.980Z,2.88
2022-10-07T09:41:32.066Z,1.55
2022-10-07T09:44:16.393Z,2.33
2022-10-07T09:46:52.469Z,1.45
2022-10-07T09:49:41.671Z,2.35
2022-10-07T09:52:36.056Z,2.70
2022-10-07T09:55:37.497Z,2.03
2022-10-07T09:58:29.400Z,1.50
2022-10-07T10:01:10.830Z,1.52
2022-10-07T10:03:39.020Z,1.42
2022-10-07T10:06:13.158Z,1.52
2022-10-07T10:08:45.714Z,1.70
2022-10-07T10:11:38.615Z,1.65
2022-10-07T10:14:29.564Z,3.38
2022-10-07T10:17:04.818Z,1.80
2022-10-07T10:19:37.089Z,1.20
2022-10-07T10:22:05.666Z,1.65
2022-10-07T10:24:57.540Z,1.40
2022-10-07T11:52:10.935Z,1.13
2022-10-07T11:54:47.509Z,2.10
2022-10-07T12:03:30.661Z,1.60
2022-10-07T12:06:15.443Z,1.35
2022-10-07T12:08:49.175Z,2.10
2022-10-07T12:11:20.059Z,1.55
2022-10-07T12:13:50.867Z,1.30
2022-10-07T12:16:35.060Z,1.40
2022-10-07T12:19:12.130Z,1.50
2022-10-07T13:04:20.545Z,1.67
2022-10-07T13:07:17.321Z,1.35
2022-10-07T13:10:15.799Z,1.40
2022-10-07T13:13:07.479Z,1.35
2022-10-07T13:15:55.820Z,2.75
2022-10-07T13:18:30.486Z,1.15
2022-10-07T13:21:24.904Z,1.30
2022-10-07T13:23:55.444Z,1.50
2022-10-07T13:26:25.517Z,1.30
2022-10-07T13:29:00.910Z,1.70
2022-10-07T13:31:32.176Z,1.27
2022-10-07T15:19:21.597Z,1.40
2022-10-07T15:49:10.646Z,1.40
2022-10-07T16:50:51.860Z,1.60
2022-10-07T16:53:18.974Z,1.42
2022-10-07T16:55:47.753Z,1.80
2022-10-07T17:01:20.606Z,2.45
2022-10-07T17:13:49.127Z,1.98
2022-10-07T17:27:23.574Z,2.55
2022-10-07T17:29:56.429Z,2.92
2022-10-07T17:32:34.954Z,3.13
2022-10-07T17:41:28.612Z,3.25
2022-10-07T17:46:42.975Z,3.65
2022-10-07T17:49:19.795Z,8.52
2022-10-07T17:51:47.404Z,6.28
2022-10-07T18:12:11.870Z,3.67
2022-10-07T18:34:42.508Z,2.00
2022-10-07T19:16:35.538Z,2.58
2022-10-07T19:25:50.168Z,2.25
2022-10-07T19:28:21.970Z,1.83
2022-10-07T19:30:55.192Z,2.00
2022-10-07T19:33:24.705Z,2.10
2022-10-07T19:35:55.249Z,2.63
2022-10-07T19:38:27.225Z,2.30
2022-10-07T19:41:24.776Z,6.15
2022-10-07T19:43:58.703Z,17.85
2022-10-07T19:46:28.959Z,14.32
2022-10-07T19:51:46.876Z,9.38
2022-10-07T19:54:15.242Z,4.00
2022-10-07T19:56:45.528Z,3.40
2022-10-07T19:59:55.511Z,3.00
2022-10-07T20:02:23.923Z,2.60
2022-10-07T20:11:38.968Z,3.13
2022-10-07T20:14:07.077Z,3.05
2022-10-07T20:16:35.062Z,3.67
2022-10-07T20:19:06.786Z,3.30
2022-10-07T20:21:38.576Z,3.88
2022-10-07T20:24:14.300Z,2.90
2022-10-07T20:26:44.229Z,2.67
2022-10-07T20:29:11.973Z,2.70
2022-10-07T20:31:41.296Z,2.20
2022-10-07T20:34:23.791Z,2.60
2022-10-07T20:36:51.135Z,2.13
2022-10-07T20:39:38.772Z,1.92
2022-10-07T20:42:22.385Z,2.90
2022-10-07T20:53:10.746Z,2.40
2022-10-07T20:58:25.550Z,2.15
2022-10-07T21:00:52.963Z,2.33
2022-10-07T21:11:31.067Z,1.88
2022-10-07T21:19:32.562Z,2.42
2022-10-07T21:22:25.889Z,3.10
2022-10-07T21:25:19.476Z,2.40
2022-10-07T21:27:46.882Z,2.05
2022-10-07T21:30:15.107Z,2.33
2022-10-07T21:32:43.105Z,2.30
2022-10-07T21:35:11.562Z,2.40
2022-10-07T21:37:38.832Z,2.15
2022-10-07T21:40:07.669Z,2.65
2022-10-07T21:42:35.055Z,2.40
2022-10-07T21:45:04.131Z,2.58
2022-10-07T21:47:31.509Z,1.98
2022-10-07T21:49:58.861Z,2.15
2022-10-07T21:52:27.181Z,2.47
2022-10-07T21:55:18.906Z,2.83
2022-10-07T21:57:47.022Z,2.13
2022-10-07T22:00:16.135Z,2.22
2022-10-07T22:02:43.086Z,2.00
2022-10-07T22:05:11.791Z,2.28
2022-10-07T22:07:58.047Z,2.35
2022-10-07T22:10:25.176Z,2.17
2022-10-07T22:12:53.921Z,1.90
2022-10-07T22:15:27.071Z,2.00
2022-10-07T22:17:56.778Z,2.28
2022-10-07T22:20:30.042Z,2.20
2022-10-07T22:22:59.984Z,2.10
2022-10-07T22:28:20.696Z,2.03
2022-10-07T22:30:49.028Z,1.73
2022-10-07T22:33:16.923Z,2.28
2022-10-07T22:36:11.528Z,2.08
2022-10-07T22:38:42.859Z,1.80
2022-10-07T22:41:14.232Z,2.65
2022-10-07T22:43:44.781Z,2.42
2022-10-07T22:46:17.580Z,2.28
2022-10-07T22:48:48.693Z,2.25
2022-10-07T22:54:13.933Z,2.30
2022-10-07T22:56:42.649Z,1.98
2022-10-07T23:02:10.800Z,2.28
2022-10-07T23:04:39.158Z,2.42
2022-10-07T23:07:07.266Z,2.05
2022-10-07T23:09:34.929Z,2.38
2022-10-07T23:12:04.931Z,2.33
2022-10-07T23:14:33.381Z,2.72
2022-10-07T23:17:07.689Z,2.40
2022-10-07T23:19:35.772Z,2.35
2022-10-07T23:22:28.136Z,2.78
2022-10-07T23:24:55.302Z,2.20
2022-10-07T23:27:33.995Z,2.83
2022-10-07T23:30:05.858Z,2.10
2022-10-07T23:32:34.081Z,3.03
2022-10-07T23:35:00.856Z,2.33
2022-10-07T23:37:29.172Z,2.33
2022-10-07T23:40:01.647Z,2.38
2022-10-07T23:42:29.711Z,2.15
2022-10-07T23:44:57.541Z,2.00
2022-10-07T23:47:24.856Z,2.25
2022-10-07T23:52:45.314Z,2.42
2022-10-07T23:55:13.151Z,2.83
2022-10-07T23:57:41.053Z,2.35
